sensor_id;sensor_type;location;lat;lon;timestamp;P1;durP1;ratioP1;P2;durP2;ratioP2
45254;SDS011;30989;52.078;21.014;2022-10-31T00:00:29;80.65;;;35.00;;
45254;SDS011;30989;52.078;21.014;2022-10-31T00:02:55;80.63;;;35.72;;
45254;SDS011;30989;52.078;21.014;2022-10-31T00:05:20;82.07;;;36.70;;
45254;SDS011;30989;52.078;21.014;2022-10-31T00:07:46;83.32;;;37.22;;
45254;SDS011;30989;52.078;21.014;2022-10-31T00:10:11;72.20;;;32.92;;
45254;SDS011;30989;52.078;21.014;2022-10-31T00:12:37;75.93;;;34.67;;
45254;SDS011;30989;52.078;21.014;2022-10-31T00:15:02;76.97;;;32.38;;
45254;SDS011;30989;52.078;21.014;2022-10-31T00:17:28;79.93;;;34.08;;
45254;SDS011;30989;52.078;21.014;2022-10-31T00:19:53;92.40;;;38.55;;
45254;SDS011;30989;52.078;21.014;2022-10-31T00:22:18;64.22;;;32.60;;
45254;SDS011;30989;52.078;21.014;2022-10-31T00:24:44;78.65;;;36.35;;
45254;SDS011;30989;52.078;21.014;2022-10-31T00:27:09;70.15;;;33.67;;
45254;SDS011;30989;52.078;21.014;2022-10-31T00:29:35;79.43;;;34.45;;
45254;SDS011;30989;52.078;21.014;2022-10-31T00:32:00;68.90;;;31.83;;
45254;SDS011;30989;52.078;21.014;2022-10-31T00:34:26;78.28;;;37.50;;
45254;SDS011;30989;52.078;21.014;2022-10-31T00:36:52;78.72;;;35.92;;
45254;SDS011;30989;52.078;21.014;2022-10-31T00:39:17;86.88;;;35.05;;
45254;SDS011;30989;52.078;21.014;2022-10-31T00:41:42;86.20;;;34.40;;
45254;SDS011;30989;52.078;21.014;2022-10-31T00:44:11;76.88;;;33.85;;
45254;SDS011;30989;52.078;21.014;2022-10-31T00:46:36;76.90;;;34.33;;
45254;SDS011;30989;52.078;21.014;2022-10-31T00:49:01;72.95;;;35.92;;
45254;SDS011;30989;52.078;21.014;2022-10-31T00:51:27;79.85;;;34.70;;
45254;SDS011;30989;52.078;21.014;2022-10-31T00:53:52;73.15;;;32.30;;
45254;SDS011;30989;52.078;21.014;2022-10-31T00:56:18;76.28;;;35.22;;
45254;SDS011;30989;52.078;21.014;2022-10-31T00:58:43;76.20;;;33.72;;
45254;SDS011;30989;52.078;21.014;2022-10-31T01:01:09;73.72;;;33.50;;
45254;SDS011;30989;52.078;21.014;2022-10-31T01:03:34;70.10;;;33.00;;
45254;SDS011;30989;52.078;21.014;2022-10-31T01:06:04;72.07;;;33.38;;
45254;SDS011;30989;52.078;21.014;2022-10-31T01:08:32;73.80;;;33.55;;
45254;SDS011;30989;52.078;21.014;2022-10-31T01:11:14;78.00;;;35.50;;
45254;SDS011;30989;52.078;21.014;2022-10-31T01:13:42;76.25;;;33.28;;
45254;SDS011;30989;52.078;21.014;2022-10-31T01:16:10;80.20;;;34.97;;
45254;SDS011;30989;52.078;21.014;2022-10-31T01:18:37;81.00;;;35.97;;
45254;SDS011;30989;52.078;21.014;2022-10-31T01:23:35;84.65;;;36.60;;
45254;SDS011;30989;52.078;21.014;2022-10-31T01:28:55;82.40;;;38.35;;
45254;SDS011;30989;52.078;21.014;2022-10-31T01:31:24;80.50;;;36.83;;
45254;SDS011;30989;52.078;21.014;2022-10-31T01:33:53;79.65;;;35.60;;
45254;SDS011;30989;52.078;21.014;2022-10-31T01:36:20;81.22;;;34.60;;
45254;SDS011;30989;52.078;21.014;2022-10-31T01:38:50;79.38;;;35.95;;
45254;SDS011;30989;52.078;21.014;2022-10-31T01:41:17;84.32;;;38.83;;
45254;SDS011;30989;52.078;21.014;2022-10-31T01:43:48;70.80;;;34.05;;
45254;SDS011;30989;52.078;21.014;2022-10-31T01:46:37;74.63;;;34.05;;
45254;SDS011;30989;52.078;21.014;2022-10-31T01:49:09;74.68;;;34.40;;
45254;SDS011;30989;52.078;21.014;2022-10-31T01:51:38;75.90;;;34.95;;
45254;SDS011;30989;52.078;21.014;2022-10-31T01:54:10;76.93;;;36.13;;
45254;SDS011;30989;52.078;21.014;2022-10-31T01:56:39;90.35;;;38.38;;
45254;SDS011;30989;52.078;21.014;2022-10-31T01:59:08;83.15;;;37.33;;
45254;SDS011;30989;52.078;21.014;2022-10-31T02:01:38;82.50;;;37.40;;
45254;SDS011;30989;52.078;21.014;2022-10-31T02:04:05;81.05;;;36.78;;
45254;SDS011;30989;52.078;21.014;2022-10-31T02:06:38;74.57;;;34.70;;
45254;SDS011;30989;52.078;21.014;2022-10-31T02:09:11;77.90;;;35.13;;
45254;SDS011;30989;52.078;21.014;2022-10-31T02:11:37;74.65;;;33.45;;
45254;SDS011;30989;52.078;21.014;2022-10-31T02:14:04;81.57;;;34.67;;
45254;SDS011;30989;52.078;21.014;2022-10-31T02:16:29;70.38;;;33.47;;
45254;SDS011;30989;52.078;21.014;2022-10-31T02:18:55;66.93;;;29.75;;
45254;SDS011;30989;52.078;21.014;2022-10-31T02:21:28;69.30;;;30.20;;
45254;SDS011;30989;52.078;21.014;2022-10-31T02:32:34;51.70;;;26.25;;
45254;SDS011;30989;52.078;21.014;2022-10-31T02:43:13;40.22;;;19.27;;
45254;SDS011;30989;52.078;21.014;2022-10-31T02:45:50;40.90;;;20.02;;
45254;SDS011;30989;52.078;21.014;2022-10-31T02:48:26;46.95;;;20.85;;
45254;SDS011;30989;52.078;21.014;2022-10-31T02:50:57;49.42;;;20.00;;
45254;SDS011;30989;52.078;21.014;2022-10-31T02:58:51;38.47;;;18.52;;
45254;SDS011;30989;52.078;21.014;2022-10-31T03:01:33;29.70;;;16.10;;
45254;SDS011;30989;52.078;21.014;2022-10-31T03:07:00;29.95;;;13.32;;
45254;SDS011;30989;52.078;21.014;2022-10-31T03:12:47;25.55;;;14.30;;
45254;SDS011;30989;52.078;21.014;2022-10-31T03:15:37;25.35;;;13.55;;
45254;SDS011;30989;52.078;21.014;2022-10-31T03:18:11;24.95;;;13.30;;
45254;SDS011;30989;52.078;21.014;2022-10-31T03:20:44;28.83;;;13.90;;
45254;SDS011;30989;52.078;21.014;2022-10-31T03:23:16;25.55;;;13.52;;
45254;SDS011;30989;52.078;21.014;2022-10-31T03:25:48;27.58;;;13.68;;
45254;SDS011;30989;52.078;21.014;2022-10-31T03:28:25;26.08;;;13.07;;
45254;SDS011;30989;52.078;21.014;2022-10-31T03:30:57;29.35;;;14.20;;
45254;SDS011;30989;52.078;21.014;2022-10-31T03:33:26;32.13;;;14.32;;
45254;SDS011;30989;52.078;21.014;2022-10-31T03:35:57;31.05;;;14.15;;
45254;SDS011;30989;52.078;21.014;2022-10-31T03:38:27;27.70;;;14.18;;
45254;SDS011;30989;52.078;21.014;2022-10-31T03:40:54;28.20;;;12.38;;
45254;SDS011;30989;52.078;21.014;2022-10-31T03:43:26;25.55;;;13.88;;
45254;SDS011;30989;52.078;21.014;2022-10-31T03:45:57;27.70;;;13.25;;
45254;SDS011;30989;52.078;21.014;2022-10-31T03:48:23;27.48;;;12.60;;
45254;SDS011;30989;52.078;21.014;2022-10-31T03:51:06;35.00;;;14.30;;
45254;SDS011;30989;52.078;21.014;2022-10-31T03:53:45;29.65;;;15.05;;
45254;SDS011;30989;52.078;21.014;2022-10-31T03:56:32;36.05;;;14.20;;
45254;SDS011;30989;52.078;21.014;2022-10-31T03:59:02;27.88;;;14.00;;
45254;SDS011;30989;52.078;21.014;2022-10-31T04:01:37;31.58;;;15.82;;
45254;SDS011;30989;52.078;21.014;2022-10-31T04:04:08;35.25;;;15.60;;
45254;SDS011;30989;52.078;21.014;2022-10-31T04:06:36;31.20;;;16.13;;
45254;SDS011;30989;52.078;21.014;2022-10-31T04:09:04;31.38;;;14.40;;
45254;SDS011;30989;52.078;21.014;2022-10-31T04:11:34;35.05;;;15.38;;
45254;SDS011;30989;52.078;21.014;2022-10-31T04:14:27;30.98;;;15.23;;
45254;SDS011;30989;52.078;21.014;2022-10-31T04:16:57;34.45;;;16.67;;
45254;SDS011;30989;52.078;21.014;2022-10-31T04:19:32;35.45;;;15.55;;
45254;SDS011;30989;52.078;21.014;2022-10-31T04:21:57;28.58;;;15.55;;
45254;SDS011;30989;52.078;21.014;2022-10-31T04:24:23;34.30;;;16.33;;
45254;SDS011;30989;52.078;21.014;2022-10-31T04:26:49;35.05;;;16.08;;
45254;SDS011;30989;52.078;21.014;2022-10-31T04:29:18;33.20;;;15.77;;
45254;SDS011;30989;52.078;21.014;2022-10-31T04:31:43;25.58;;;13.40;;
45254;SDS011;30989;52.078;21.014;2022-10-31T04:34:09;35.30;;;15.35;;
45254;SDS011;30989;52.078;21.014;2022-10-31T04:36:34;29.50;;;16.15;;
45254;SDS011;30989;52.078;21.014;2022-10-31T04:39:00;32.22;;;15.00;;
45254;SDS011;30989;52.078;21.014;2022-10-31T04:41:38;29.50;;;15.80;;
45254;SDS011;30989;52.078;21.014;2022-10-31T04:44:12;32.45;;;15.32;;
45254;SDS011;30989;52.078;21.014;2022-10-31T04:46:37;32.60;;;14.40;;
45254;SDS011;30989;52.078;21.014;2022-10-31T04:49:03;37.65;;;14.63;;
45254;SDS011;30989;52.078;21.014;2022-10-31T04:51:29;27.05;;;13.73;;
45254;SDS011;30989;52.078;21.014;2022-10-31T04:53:54;29.10;;;12.68;;
45254;SDS011;30989;52.078;21.014;2022-10-31T04:56:49;29.50;;;13.93;;
45254;SDS011;30989;52.078;21.014;2022-10-31T04:59:19;29.30;;;13.60;;
45254;SDS011;30989;52.078;21.014;2022-10-31T05:01:52;31.05;;;14.18;;
45254;SDS011;30989;52.078;21.014;2022-10-31T05:06:50;30.15;;;13.90;;
45254;SDS011;30989;52.078;21.014;2022-10-31T05:09:16;28.50;;;13.43;;
45254;SDS011;30989;52.078;21.014;2022-10-31T05:11:42;27.48;;;15.13;;
45254;SDS011;30989;52.078;21.014;2022-10-31T05:14:42;27.98;;;13.50;;
45254;SDS011;30989;52.078;21.014;2022-10-31T05:17:40;26.42;;;14.35;;
45254;SDS011;30989;52.078;21.014;2022-10-31T05:20:32;21.03;;;10.07;;
45254;SDS011;30989;52.078;21.014;2022-10-31T05:23:13;21.57;;;10.50;;
45254;SDS011;30989;52.078;21.014;2022-10-31T05:25:40;27.95;;;15.18;;
45254;SDS011;30989;52.078;21.014;2022-10-31T05:28:06;31.15;;;17.48;;
45254;SDS011;30989;52.078;21.014;2022-10-31T05:30:32;32.80;;;16.88;;
45254;SDS011;30989;52.078;21.014;2022-10-31T05:32:59;40.03;;;18.67;;
45254;SDS011;30989;52.078;21.014;2022-10-31T05:35:47;43.72;;;19.27;;
45254;SDS011;30989;52.078;21.014;2022-10-31T05:38:22;42.47;;;19.27;;
45254;SDS011;30989;52.078;21.014;2022-10-31T05:40:48;40.47;;;17.35;;
45254;SDS011;30989;52.078;21.014;2022-10-31T05:43:14;30.23;;;14.65;;
45254;SDS011;30989;52.078;21.014;2022-10-31T05:45:39;37.95;;;18.40;;
45254;SDS011;30989;52.078;21.014;2022-10-31T05:48:11;35.83;;;17.08;;
45254;SDS011;30989;52.078;21.014;2022-10-31T05:50:55;43.80;;;16.25;;
45254;SDS011;30989;52.078;21.014;2022-10-31T05:53:21;31.67;;;15.10;;
45254;SDS011;30989;52.078;21.014;2022-10-31T05:55:47;34.63;;;15.50;;
45254;SDS011;30989;52.078;21.014;2022-10-31T05:58:17;36.05;;;16.58;;
45254;SDS011;30989;52.078;21.014;2022-10-31T06:00:57;36.50;;;15.10;;
45254;SDS011;30989;52.078;21.014;2022-10-31T06:03:23;35.33;;;15.80;;
45254;SDS011;30989;52.078;21.014;2022-10-31T06:05:52;31.90;;;14.52;;
45254;SDS011;30989;52.078;21.014;2022-10-31T06:08:18;34.63;;;14.52;;
45254;SDS011;30989;52.078;21.014;2022-10-31T06:10:44;32.58;;;15.35;;
45254;SDS011;30989;52.078;21.014;2022-10-31T06:13:12;23.92;;;11.43;;
45254;SDS011;30989;52.078;21.014;2022-10-31T06:15:46;26.70;;;12.75;;
45254;SDS011;30989;52.078;21.014;2022-10-31T06:18:12;27.80;;;11.45;;
45254;SDS011;30989;52.078;21.014;2022-10-31T06:20:46;30.40;;;14.15;;
45254;SDS011;30989;52.078;21.014;2022-10-31T06:23:12;26.65;;;12.73;;
45254;SDS011;30989;52.078;21.014;2022-10-31T06:25:39;26.48;;;13.48;;
45254;SDS011;30989;52.078;21.014;2022-10-31T06:28:05;25.60;;;12.15;;
45254;SDS011;30989;52.078;21.014;2022-10-31T06:30:42;24.10;;;11.00;;
45254;SDS011;30989;52.078;21.014;2022-10-31T06:33:10;27.77;;;13.80;;
45254;SDS011;30989;52.078;21.014;2022-10-31T06:35:44;23.30;;;10.80;;
45254;SDS011;30989;52.078;21.014;2022-10-31T06:38:12;25.45;;;10.57;;
45254;SDS011;30989;52.078;21.014;2022-10-31T06:40:40;25.13;;;11.80;;
45254;SDS011;30989;52.078;21.014;2022-10-31T06:43:28;29.25;;;14.10;;
45254;SDS011;30989;52.078;21.014;2022-10-31T06:46:14;27.98;;;12.50;;
45254;SDS011;30989;52.078;21.014;2022-10-31T06:48:58;22.95;;;11.93;;
45254;SDS011;30989;52.078;21.014;2022-10-31T06:51:49;25.27;;;12.73;;
45254;SDS011;30989;52.078;21.014;2022-10-31T06:54:16;28.95;;;13.35;;
45254;SDS011;30989;52.078;21.014;2022-10-31T06:56:41;27.02;;;11.77;;
45254;SDS011;30989;52.078;21.014;2022-10-31T06:59:08;30.15;;;13.73;;
45254;SDS011;30989;52.078;21.014;2022-10-31T07:01:53;31.25;;;15.25;;
45254;SDS011;30989;52.078;21.014;2022-10-31T07:04:19;35.83;;;14.77;;
45254;SDS011;30989;52.078;21.014;2022-10-31T07:06:46;32.63;;;15.05;;
45254;SDS011;30989;52.078;21.014;2022-10-31T07:09:12;27.35;;;11.70;;
45254;SDS011;30989;52.078;21.014;2022-10-31T07:11:38;28.23;;;12.68;;
45254;SDS011;30989;52.078;21.014;2022-10-31T07:14:04;35.22;;;15.93;;
45254;SDS011;30989;52.078;21.014;2022-10-31T07:16:29;23.20;;;11.75;;
45254;SDS011;30989;52.078;21.014;2022-10-31T07:18:55;28.80;;;12.63;;
45254;SDS011;30989;52.078;21.014;2022-10-31T07:21:21;34.33;;;14.60;;
45254;SDS011;30989;52.078;21.014;2022-10-31T07:23:49;28.45;;;12.85;;
45254;SDS011;30989;52.078;21.014;2022-10-31T07:26:40;26.40;;;12.13;;
45254;SDS011;30989;52.078;21.014;2022-10-31T07:29:08;28.63;;;13.88;;
45254;SDS011;30989;52.078;21.014;2022-10-31T07:31:33;26.40;;;13.32;;
45254;SDS011;30989;52.078;21.014;2022-10-31T07:34:06;26.20;;;12.43;;
45254;SDS011;30989;52.078;21.014;2022-10-31T07:36:50;27.83;;;11.82;;
45254;SDS011;30989;52.078;21.014;2022-10-31T07:39:17;29.08;;;12.30;;
45254;SDS011;30989;52.078;21.014;2022-10-31T07:41:42;22.70;;;10.57;;
45254;SDS011;30989;52.078;21.014;2022-10-31T07:44:08;21.75;;;9.65;;
45254;SDS011;30989;52.078;21.014;2022-10-31T07:46:52;24.90;;;12.57;;
45254;SDS011;30989;52.078;21.014;2022-10-31T07:49:52;21.30;;;10.15;;
45254;SDS011;30989;52.078;21.014;2022-10-31T07:52:28;20.05;;;11.15;;
45254;SDS011;30989;52.078;21.014;2022-10-31T07:55:14;25.50;;;12.48;;
45254;SDS011;30989;52.078;21.014;2022-10-31T07:57:45;26.95;;;13.30;;
45254;SDS011;30989;52.078;21.014;2022-10-31T08:00:11;26.13;;;12.90;;
45254;SDS011;30989;52.078;21.014;2022-10-31T08:02:43;23.63;;;12.55;;
45254;SDS011;30989;52.078;21.014;2022-10-31T08:05:29;28.75;;;11.13;;
45254;SDS011;30989;52.078;21.014;2022-10-31T08:08:25;25.40;;;11.35;;
45254;SDS011;30989;52.078;21.014;2022-10-31T08:10:53;26.48;;;12.30;;
45254;SDS011;30989;52.078;21.014;2022-10-31T08:13:19;23.42;;;10.82;;
45254;SDS011;30989;52.078;21.014;2022-10-31T08:15:49;21.75;;;10.82;;
45254;SDS011;30989;52.078;21.014;2022-10-31T08:18:19;21.15;;;10.57;;
45254;SDS011;30989;52.078;21.014;2022-10-31T08:20:47;22.10;;;10.85;;
45254;SDS011;30989;52.078;21.014;2022-10-31T08:23:13;20.90;;;10.32;;
45254;SDS011;30989;52.078;21.014;2022-10-31T08:25:41;22.13;;;11.38;;
45254;SDS011;30989;52.078;21.014;2022-10-31T08:28:08;23.38;;;12.13;;
45254;SDS011;30989;52.078;21.014;2022-10-31T08:30:37;20.67;;;10.95;;
45254;SDS011;30989;52.078;21.014;2022-10-31T08:33:35;18.13;;;10.20;;
45254;SDS011;30989;52.078;21.014;2022-10-31T08:36:19;26.35;;;12.50;;
45254;SDS011;30989;52.078;21.014;2022-10-31T08:38:54;24.45;;;11.00;;
45254;SDS011;30989;52.078;21.014;2022-10-31T08:41:23;28.52;;;14.15;;
45254;SDS011;30989;52.078;21.014;2022-10-31T08:43:49;25.13;;;12.43;;
45254;SDS011;30989;52.078;21.014;2022-10-31T08:46:15;24.48;;;12.57;;
45254;SDS011;30989;52.078;21.014;2022-10-31T08:48:42;20.60;;;11.18;;
45254;SDS011;30989;52.078;21.014;2022-10-31T08:51:08;26.08;;;12.35;;
45254;SDS011;30989;52.078;21.014;2022-10-31T08:53:35;23.27;;;11.80;;
45254;SDS011;30989;52.078;21.014;2022-10-31T08:56:20;24.02;;;11.88;;
45254;SDS011;30989;52.078;21.014;2022-10-31T08:58:45;27.60;;;15.38;;
45254;SDS011;30989;52.078;21.014;2022-10-31T09:01:11;24.10;;;13.70;;
45254;SDS011;30989;52.078;21.014;2022-10-31T09:03:37;26.52;;;14.40;;
45254;SDS011;30989;52.078;21.014;2022-10-31T09:06:03;24.77;;;11.98;;
45254;SDS011;30989;52.078;21.014;2022-10-31T09:08:33;28.13;;;13.27;;
45254;SDS011;30989;52.078;21.014;2022-10-31T09:11:00;27.77;;;13.85;;
45254;SDS011;30989;52.078;21.014;2022-10-31T09:13:53;25.05;;;13.55;;
45254;SDS011;30989;52.078;21.014;2022-10-31T09:16:36;23.60;;;13.07;;
45254;SDS011;30989;52.078;21.014;2022-10-31T09:19:04;22.50;;;11.77;;
45254;SDS011;30989;52.078;21.014;2022-10-31T09:21:29;25.17;;;12.90;;
45254;SDS011;30989;52.078;21.014;2022-10-31T09:23:57;28.10;;;13.60;;
45254;SDS011;30989;52.078;21.014;2022-10-31T09:26:22;22.60;;;11.82;;
45254;SDS011;30989;52.078;21.014;2022-10-31T09:29:13;23.20;;;13.20;;
45254;SDS011;30989;52.078;21.014;2022-10-31T09:31:38;27.58;;;12.57;;
45254;SDS011;30989;52.078;21.014;2022-10-31T09:34:11;25.15;;;12.43;;
45254;SDS011;30989;52.078;21.014;2022-10-31T09:36:39;25.08;;;13.60;;
45254;SDS011;30989;52.078;21.014;2022-10-31T09:39:09;26.23;;;12.93;;
45254;SDS011;30989;52.078;21.014;2022-10-31T09:47:17;25.02;;;12.50;;
45254;SDS011;30989;52.078;21.014;2022-10-31T09:52:54;24.73;;;12.77;;
45254;SDS011;30989;52.078;21.014;2022-10-31T09:55:30;18.38;;;10.45;;
45254;SDS011;30989;52.078;21.014;2022-10-31T09:58:01;20.88;;;10.60;;
45254;SDS011;30989;52.078;21.014;2022-10-31T10:00:28;20.35;;;10.05;;
45254;SDS011;30989;52.078;21.014;2022-10-31T10:02:59;19.67;;;10.90;;
45254;SDS011;30989;52.078;21.014;2022-10-31T10:05:34;20.98;;;10.63;;
45254;SDS011;30989;52.078;21.014;2022-10-31T10:14:04;23.13;;;11.38;;
45254;SDS011;30989;52.078;21.014;2022-10-31T10:19:28;17.13;;;10.85;;
45254;SDS011;30989;52.078;21.014;2022-10-31T10:27:27;16.45;;;10.60;;
45254;SDS011;30989;52.078;21.014;2022-10-31T10:30:16;20.50;;;10.90;;
45254;SDS011;30989;52.078;21.014;2022-10-31T10:32:56;19.63;;;11.05;;
45254;SDS011;30989;52.078;21.014;2022-10-31T10:35:25;15.77;;;10.27;;
45254;SDS011;30989;52.078;21.014;2022-10-31T10:38:19;18.73;;;10.73;;
45254;SDS011;30989;52.078;21.014;2022-10-31T10:40:48;17.67;;;10.60;;
45254;SDS011;30989;52.078;21.014;2022-10-31T10:43:24;21.02;;;11.65;;
45254;SDS011;30989;52.078;21.014;2022-10-31T10:49:18;18.90;;;10.35;;
45254;SDS011;30989;52.078;21.014;2022-10-31T10:59:30;17.63;;;9.70;;
45254;SDS011;30989;52.078;21.014;2022-10-31T11:01:56;20.48;;;11.07;;
45254;SDS011;30989;52.078;21.014;2022-10-31T11:04:25;19.30;;;11.23;;
45254;SDS011;30989;52.078;21.014;2022-10-31T11:07:07;21.33;;;11.00;;
45254;SDS011;30989;52.078;21.014;2022-10-31T11:09:35;18.98;;;9.82;;
45254;SDS011;30989;52.078;21.014;2022-10-31T11:12:46;18.77;;;10.68;;
45254;SDS011;30989;52.078;21.014;2022-10-31T11:14:57;18.75;;;11.38;;
45254;SDS011;30989;52.078;21.014;2022-10-31T11:17:27;18.83;;;10.65;;
45254;SDS011;30989;52.078;21.014;2022-10-31T11:20:37;20.80;;;12.73;;
45254;SDS011;30989;52.078;21.014;2022-10-31T11:22:45;18.33;;;9.88;;
45254;SDS011;30989;52.078;21.014;2022-10-31T11:25:25;15.95;;;10.25;;
45254;SDS011;30989;52.078;21.014;2022-10-31T11:28:04;23.85;;;11.40;;
45254;SDS011;30989;52.078;21.014;2022-10-31T11:30:45;19.75;;;11.48;;
45254;SDS011;30989;52.078;21.014;2022-10-31T11:33:18;22.33;;;12.73;;
45254;SDS011;30989;52.078;21.014;2022-10-31T11:35:52;23.30;;;13.20;;
45254;SDS011;30989;52.078;21.014;2022-10-31T11:38:19;21.92;;;11.90;;
45254;SDS011;30989;52.078;21.014;2022-10-31T11:40:56;24.33;;;12.30;;
45254;SDS011;30989;52.078;21.014;2022-10-31T11:43:24;23.27;;;12.60;;
45254;SDS011;30989;52.078;21.014;2022-10-31T11:45:51;22.15;;;11.95;;
45254;SDS011;30989;52.078;21.014;2022-10-31T11:48:21;29.65;;;13.55;;
45254;SDS011;30989;52.078;21.014;2022-10-31T11:50:49;27.30;;;14.00;;
45254;SDS011;30989;52.078;21.014;2022-10-31T11:53:28;23.20;;;11.85;;
45254;SDS011;30989;52.078;21.014;2022-10-31T11:56:04;21.77;;;12.10;;
45254;SDS011;30989;52.078;21.014;2022-10-31T11:58:39;25.42;;;13.25;;
45254;SDS011;30989;52.078;21.014;2022-10-31T12:01:04;25.95;;;13.70;;
45254;SDS011;30989;52.078;21.014;2022-10-31T12:06:35;22.38;;;12.73;;
45254;SDS011;30989;52.078;21.014;2022-10-31T12:09:18;22.73;;;13.82;;
45254;SDS011;30989;52.078;21.014;2022-10-31T12:17:22;25.73;;;13.85;;
45254;SDS011;30989;52.078;21.014;2022-10-31T12:23:06;24.90;;;13.32;;
45254;SDS011;30989;52.078;21.014;2022-10-31T12:37:15;27.42;;;13.07;;
45254;SDS011;30989;52.078;21.014;2022-10-31T12:40:00;21.15;;;11.63;;
45254;SDS011;30989;52.078;21.014;2022-10-31T12:48:06;18.60;;;10.48;;
45254;SDS011;30989;52.078;21.014;2022-10-31T12:56:18;18.88;;;11.27;;
45254;SDS011;30989;52.078;21.014;2022-10-31T12:59:01;19.10;;;11.65;;
45254;SDS011;30989;52.078;21.014;2022-10-31T13:01:49;18.20;;;10.73;;
45254;SDS011;30989;52.078;21.014;2022-10-31T13:07:07;23.10;;;10.07;;
45254;SDS011;30989;52.078;21.014;2022-10-31T13:09:49;20.35;;;11.23;;
45254;SDS011;30989;52.078;21.014;2022-10-31T13:12:21;20.50;;;11.27;;
45254;SDS011;30989;52.078;21.014;2022-10-31T13:14:52;24.30;;;12.02;;
45254;SDS011;30989;52.078;21.014;2022-10-31T13:17:22;21.45;;;12.02;;
45254;SDS011;30989;52.078;21.014;2022-10-31T13:20:05;24.88;;;13.20;;
45254;SDS011;30989;52.078;21.014;2022-10-31T13:22:34;19.85;;;11.32;;
45254;SDS011;30989;52.078;21.014;2022-10-31T13:25:09;23.35;;;11.38;;
45254;SDS011;30989;52.078;21.014;2022-10-31T13:30:27;24.42;;;12.85;;
45254;SDS011;30989;52.078;21.014;2022-10-31T13:32:59;21.38;;;11.25;;
45254;SDS011;30989;52.078;21.014;2022-10-31T13:40:57;24.67;;;13.10;;
45254;SDS011;30989;52.078;21.014;2022-10-31T13:44:10;30.38;;;14.05;;
45254;SDS011;30989;52.078;21.014;2022-10-31T13:46:38;26.13;;;13.07;;
45254;SDS011;30989;52.078;21.014;2022-10-31T13:49:21;28.30;;;13.77;;
45254;SDS011;30989;52.078;21.014;2022-10-31T13:51:48;30.83;;;13.98;;
45254;SDS011;30989;52.078;21.014;2022-10-31T13:54:21;30.27;;;13.80;;
45254;SDS011;30989;52.078;21.014;2022-10-31T13:57:00;29.90;;;14.15;;
45254;SDS011;30989;52.078;21.014;2022-10-31T13:59:26;31.33;;;13.95;;
45254;SDS011;30989;52.078;21.014;2022-10-31T14:01:55;32.42;;;14.63;;
45254;SDS011;30989;52.078;21.014;2022-10-31T14:04:26;34.38;;;15.02;;
45254;SDS011;30989;52.078;21.014;2022-10-31T14:06:58;35.67;;;16.48;;
45254;SDS011;30989;52.078;21.014;2022-10-31T14:12:01;40.20;;;18.45;;
45254;SDS011;30989;52.078;21.014;2022-10-31T14:14:32;36.40;;;17.40;;
45254;SDS011;30989;52.078;21.014;2022-10-31T14:17:04;41.45;;;16.02;;
45254;SDS011;30989;52.078;21.014;2022-10-31T14:19:31;35.33;;;15.25;;
45254;SDS011;30989;52.078;21.014;2022-10-31T14:21:56;43.83;;;17.10;;
45254;SDS011;30989;52.078;21.014;2022-10-31T14:26:54;42.65;;;18.25;;
45254;SDS011;30989;52.078;21.014;2022-10-31T14:29:25;48.10;;;18.67;;
45254;SDS011;30989;52.078;21.014;2022-10-31T14:31:59;45.80;;;17.25;;
45254;SDS011;30989;52.078;21.014;2022-10-31T14:34:37;43.50;;;17.08;;
45254;SDS011;30989;52.078;21.014;2022-10-31T14:51:38;42.58;;;17.60;;
45254;SDS011;30989;52.078;21.014;2022-10-31T14:54:07;42.30;;;17.38;;
45254;SDS011;30989;52.078;21.014;2022-10-31T14:56:41;42.63;;;16.65;;
45254;SDS011;30989;52.078;21.014;2022-10-31T14:59:14;39.33;;;16.73;;
45254;SDS011;30989;52.078;21.014;2022-10-31T15:01:50;45.17;;;18.80;;
45254;SDS011;30989;52.078;21.014;2022-10-31T15:04:37;49.60;;;21.13;;
45254;SDS011;30989;52.078;21.014;2022-10-31T15:09:36;47.58;;;19.27;;
45254;SDS011;30989;52.078;21.014;2022-10-31T15:14:51;48.72;;;17.98;;
45254;SDS011;30989;52.078;21.014;2022-10-31T15:17:17;48.05;;;19.13;;
45254;SDS011;30989;52.078;21.014;2022-10-31T15:19:43;50.67;;;19.08;;
45254;SDS011;30989;52.078;21.014;2022-10-31T15:22:10;48.22;;;20.65;;
45254;SDS011;30989;52.078;21.014;2022-10-31T15:24:45;53.05;;;21.73;;
45254;SDS011;30989;52.078;21.014;2022-10-31T15:27:13;48.58;;;20.90;;
45254;SDS011;30989;52.078;21.014;2022-10-31T15:29:49;52.78;;;23.05;;
45254;SDS011;30989;52.078;21.014;2022-10-31T15:32:28;64.15;;;26.60;;
45254;SDS011;30989;52.078;21.014;2022-10-31T15:34:54;43.55;;;19.48;;
45254;SDS011;30989;52.078;21.014;2022-10-31T15:37:22;47.97;;;18.58;;
45254;SDS011;30989;52.078;21.014;2022-10-31T15:39:50;48.63;;;19.45;;
45254;SDS011;30989;52.078;21.014;2022-10-31T15:42:20;42.33;;;18.92;;
45254;SDS011;30989;52.078;21.014;2022-10-31T15:45:02;47.95;;;17.65;;
45254;SDS011;30989;52.078;21.014;2022-10-31T15:47:51;56.15;;;19.50;;
45254;SDS011;30989;52.078;21.014;2022-10-31T15:53:05;57.03;;;22.58;;
45254;SDS011;30989;52.078;21.014;2022-10-31T15:55:44;55.08;;;19.75;;
45254;SDS011;30989;52.078;21.014;2022-10-31T15:58:19;61.65;;;26.10;;
45254;SDS011;30989;52.078;21.014;2022-10-31T16:00:45;54.55;;;24.33;;
45254;SDS011;30989;52.078;21.014;2022-10-31T16:03:24;63.63;;;24.90;;
45254;SDS011;30989;52.078;21.014;2022-10-31T16:05:56;63.97;;;25.75;;
45254;SDS011;30989;52.078;21.014;2022-10-31T16:10:58;72.30;;;26.23;;
45254;SDS011;30989;52.078;21.014;2022-10-31T16:13:26;69.47;;;23.53;;
45254;SDS011;30989;52.078;21.014;2022-10-31T16:15:58;73.78;;;24.92;;
45254;SDS011;30989;52.078;21.014;2022-10-31T16:18:26;77.55;;;26.85;;
45254;SDS011;30989;52.078;21.014;2022-10-31T16:20:54;77.75;;;26.52;;
45254;SDS011;30989;52.078;21.014;2022-10-31T16:23:24;72.85;;;26.65;;
45254;SDS011;30989;52.078;21.014;2022-10-31T16:25:52;73.57;;;27.48;;
45254;SDS011;30989;52.078;21.014;2022-10-31T16:30:51;81.38;;;29.63;;
45254;SDS011;30989;52.078;21.014;2022-10-31T16:33:31;75.47;;;27.02;;
45254;SDS011;30989;52.078;21.014;2022-10-31T16:36:28;75.90;;;29.38;;
45254;SDS011;30989;52.078;21.014;2022-10-31T16:38:55;68.00;;;24.83;;
45254;SDS011;30989;52.078;21.014;2022-10-31T16:41:21;69.43;;;25.40;;
45254;SDS011;30989;52.078;21.014;2022-10-31T16:43:47;64.55;;;22.77;;
45254;SDS011;30989;52.078;21.014;2022-10-31T16:46:18;66.40;;;25.35;;
45254;SDS011;30989;52.078;21.014;2022-10-31T16:48:50;66.10;;;23.88;;
45254;SDS011;30989;52.078;21.014;2022-10-31T16:51:15;54.03;;;21.45;;
45254;SDS011;30989;52.078;21.014;2022-10-31T16:53:41;60.97;;;21.70;;
45254;SDS011;30989;52.078;21.014;2022-10-31T16:56:11;65.93;;;24.77;;
45254;SDS011;30989;52.078;21.014;2022-10-31T16:58:41;60.28;;;22.63;;
45254;SDS011;30989;52.078;21.014;2022-10-31T17:01:07;62.30;;;23.20;;
45254;SDS011;30989;52.078;21.014;2022-10-31T17:03:32;57.83;;;21.63;;